createdAt,value
2017-07-30T00:00:49.498Z,3.40
2017-07-30T00:03:17.568Z,2.97
2017-07-30T00:05:46.406Z,3.17
2017-07-30T00:08:14.479Z,3.67
2017-07-30T00:10:42.535Z,3.30
2017-07-30T00:13:10.724Z,3.63
2017-07-30T00:15:38.791Z,3.77
2017-07-30T00:18:06.844Z,3.83
2017-07-30T00:20:34.910Z,3.63
2017-07-30T00:23:02.978Z,3.80
2017-07-30T00:25:31.051Z,3.50
2017-07-30T00:27:59.132Z,3.50
2017-07-30T00:30:27.194Z,3.53
2017-07-30T00:32:55.259Z,3.90
2017-07-30T00:35:23.322Z,3.20
2017-07-30T00:37:51.406Z,3.00
2017-07-30T00:40:19.486Z,3.53
2017-07-30T00:42:47.533Z,3.57
2017-07-30T00:45:15.589Z,3.70
2017-07-30T00:47:43.655Z,3.87
2017-07-30T00:50:12.474Z,3.50
2017-07-30T00:52:40.547Z,3.13
2017-07-30T00:55:08.599Z,3.30
2017-07-30T00:57:36.640Z,3.30
2017-07-30T01:00:04.734Z,3.60
2017-07-30T01:02:32.783Z,3.80
2017-07-30T01:05:00.863Z,4.37
2017-07-30T01:07:28.936Z,3.47
2017-07-30T01:09:56.990Z,3.80
2017-07-30T01:12:25.071Z,3.83
2017-07-30T01:14:53.134Z,3.20
2017-07-30T01:17:21.187Z,3.50
2017-07-30T01:19:50.026Z,3.40
2017-07-30T01:22:18.090Z,3.97
2017-07-30T01:24:46.202Z,3.77
2017-07-30T01:27:14.267Z,4.20
2017-07-30T01:29:42.322Z,3.63
2017-07-30T01:32:10.378Z,3.30
2017-07-30T01:34:38.436Z,3.50
2017-07-30T01:37:06.510Z,3.50
2017-07-30T01:39:34.566Z,3.57
2017-07-30T01:42:02.648Z,3.53
2017-07-30T01:44:31.245Z,3.70
2017-07-30T01:46:59.298Z,3.30
2017-07-30T01:49:27.358Z,2.60
2017-07-30T01:51:55.439Z,3.70
2017-07-30T01:54:23.492Z,4.00
2017-07-30T01:56:51.558Z,3.60
2017-07-30T01:59:19.634Z,3.80
2017-07-30T02:01:47.703Z,3.80
2017-07-30T02:04:15.766Z,3.40
2017-07-30T02:06:43.810Z,4.00
2017-07-30T02:09:11.879Z,3.60
2017-07-30T02:11:39.951Z,3.30
2017-07-30T02:14:08.019Z,3.60
2017-07-30T02:16:36.085Z,3.83
2017-07-30T02:19:04.166Z,3.63
2017-07-30T02:21:32.234Z,3.23
2017-07-30T02:24:00.279Z,3.87
2017-07-30T02:26:29.115Z,3.50
2017-07-30T02:28:57.165Z,3.63
2017-07-30T02:31:25.238Z,3.60
2017-07-30T02:33:53.358Z,3.40
2017-07-30T02:36:21.407Z,3.93
2017-07-30T02:38:49.475Z,3.87
2017-07-30T02:41:17.830Z,3.60
2017-07-30T02:43:45.894Z,3.60
2017-07-30T02:46:13.972Z,4.10
2017-07-30T02:48:42.018Z,3.67
2017-07-30T02:51:10.842Z,3.37
2017-07-30T02:53:39.682Z,3.80
2017-07-30T02:56:07.743Z,3.80
2017-07-30T02:58:35.805Z,4.07
2017-07-30T03:01:03.878Z,3.20
2017-07-30T03:03:31.927Z,3.67
2017-07-30T03:06:00.767Z,3.90
2017-07-30T03:08:28.814Z,3.70
2017-07-30T03:10:56.923Z,3.53
2017-07-30T03:13:24.997Z,3.53
2017-07-30T03:15:53.047Z,4.17
2017-07-30T03:18:21.091Z,3.87
2017-07-30T03:20:49.156Z,3.40
2017-07-30T03:23:17.937Z,3.70
2017-07-30T03:25:45.986Z,3.70
2017-07-30T03:28:14.817Z,4.00
2017-07-30T03:30:42.879Z,3.80
2017-07-30T03:33:10.950Z,4.10
2017-07-30T03:35:39.013Z,4.00
2017-07-30T03:38:07.067Z,3.40
2017-07-30T03:40:36.700Z,3.80
2017-07-30T03:43:04.762Z,4.03
2017-07-30T03:45:32.809Z,3.43
2017-07-30T03:48:01.647Z,4.17
2017-07-30T03:50:29.702Z,3.90
2017-07-30T03:52:58.578Z,3.63
2017-07-30T03:55:26.680Z,3.97
2017-07-30T03:57:55.515Z,3.70
2017-07-30T04:00:23.581Z,3.50
2017-07-30T04:02:51.647Z,4.00
2017-07-30T04:05:19.709Z,4.00
2017-07-30T04:07:47.782Z,3.73
2017-07-30T04:10:15.831Z,3.87
2017-07-30T04:12:44.656Z,4.07
2017-07-30T04:15:12.723Z,3.93
2017-07-30T04:17:40.794Z,4.13
2017-07-30T04:20:08.839Z,3.97
2017-07-30T04:22:36.935Z,4.03
2017-07-30T04:25:05.003Z,4.27
2017-07-30T04:27:33.073Z,4.37
2017-07-30T04:30:01.147Z,4.47
2017-07-30T04:32:29.222Z,4.20
2017-07-30T04:34:57.295Z,4.40
2017-07-30T04:37:25.355Z,4.20
2017-07-30T04:39:53.422Z,3.60
2017-07-30T04:42:21.470Z,4.60
2017-07-30T04:44:50.308Z,3.70
2017-07-30T04:47:18.355Z,4.30
2017-07-30T04:49:46.402Z,4.40
2017-07-30T04:52:15.255Z,3.90
2017-07-30T04:54:43.307Z,3.80
2017-07-30T04:57:11.368Z,4.37
2017-07-30T04:59:39.437Z,4.40
2017-07-30T05:02:07.486Z,3.80
2017-07-30T05:04:36.325Z,4.43
2017-07-30T05:07:04.367Z,3.93
2017-07-30T05:09:32.439Z,4.10
2017-07-30T05:12:00.503Z,4.10
2017-07-30T05:14:29.322Z,4.30
2017-07-30T05:16:57.393Z,4.23
2017-07-30T05:19:25.440Z,4.07
2017-07-30T05:21:53.506Z,4.33
2017-07-30T05:24:21.554Z,4.70
2017-07-30T05:26:50.387Z,4.10
2017-07-30T05:29:18.455Z,4.57
2017-07-30T05:31:46.526Z,4.07
2017-07-30T05:34:14.586Z,4.23
2017-07-30T05:36:42.645Z,4.37
2017-07-30T05:39:10.762Z,4.03
2017-07-30T05:41:38.823Z,4.93
2017-07-30T05:44:06.888Z,3.90
2017-07-30T05:46:34.938Z,4.60
2017-07-30T05:49:03.005Z,4.30
2017-07-30T05:51:31.055Z,4.23
2017-07-30T05:53:59.863Z,4.03
2017-07-30T05:56:27.961Z,4.00
2017-07-30T05:58:56.021Z,3.73
2017-07-30T06:01:24.079Z,4.07
2017-07-30T06:03:52.158Z,3.13
2017-07-30T06:06:20.214Z,3.70
2017-07-30T06:08:48.297Z,4.20
2017-07-30T06:11:16.353Z,3.90
2017-07-30T06:13:44.417Z,3.23
2017-07-30T06:16:13.231Z,4.30
2017-07-30T06:18:41.282Z,4.50
2017-07-30T06:21:09.327Z,4.13
2017-07-30T06:23:38.165Z,3.97
2017-07-30T06:26:06.232Z,3.70
2017-07-30T06:28:34.279Z,4.07
2017-07-30T06:31:02.335Z,4.40
2017-07-30T06:33:31.158Z,3.67
2017-07-30T06:35:59.218Z,4.00
2017-07-30T06:38:27.291Z,3.80
2017-07-30T06:40:55.359Z,4.30
2017-07-30T06:43:23.423Z,3.40
2017-07-30T06:45:51.501Z,3.70
2017-07-30T06:48:19.564Z,3.93
2017-07-30T06:50:47.605Z,4.17
2017-07-30T06:53:16.450Z,4.50
2017-07-30T06:55:44.495Z,4.00
2017-07-30T06:58:12.543Z,4.07
2017-07-30T07:00:40.615Z,3.70
2017-07-30T07:03:08.688Z,3.20
2017-07-30T07:05:36.754Z,3.67
2017-07-30T07:08:04.826Z,4.10
2017-07-30T07:10:32.873Z,3.97
2017-07-30T07:13:01.711Z,3.67
2017-07-30T07:15:30.299Z,4.80
2017-07-30T07:17:58.422Z,4.93
2017-07-30T07:20:27.250Z,3.40
2017-07-30T07:22:55.335Z,3.10
2017-07-30T07:25:23.459Z,3.30
2017-07-30T07:27:52.372Z,2.97
2017-07-30T07:30:21.167Z,3.70
2017-07-30T07:32:49.228Z,4.00
2017-07-30T07:35:17.306Z,4.00
2017-07-30T07:37:45.371Z,3.00
2017-07-30T07:40:13.422Z,3.47
2017-07-30T07:42:41.484Z,2.47
2017-07-30T07:45:10.300Z,3.23
2017-07-30T07:47:38.381Z,2.93
2017-07-30T07:50:06.441Z,3.03
2017-07-30T07:52:34.514Z,2.33
2017-07-30T07:55:02.577Z,2.70
2017-07-30T07:57:32.311Z,2.90
2017-07-30T08:00:00.393Z,2.70
2017-07-30T08:02:28.474Z,2.53
2017-07-30T08:04:56.534Z,3.20
2017-07-30T08:07:24.609Z,2.73
2017-07-30T08:09:52.681Z,3.20
2017-07-30T08:12:20.760Z,2.90
2017-07-30T08:14:48.798Z,3.10
2017-07-30T08:17:17.620Z,2.47
2017-07-30T08:19:45.691Z,3.30
2017-07-30T08:22:13.755Z,2.60
2017-07-30T08:24:41.827Z,2.33
2017-07-30T08:27:10.718Z,3.37
2017-07-30T08:29:38.783Z,2.50
2017-07-30T08:32:06.854Z,2.60
2017-07-30T08:34:34.916Z,2.50
2017-07-30T08:37:02.994Z,3.07
2017-07-30T08:39:31.045Z,2.40
2017-07-30T08:41:59.611Z,2.73
2017-07-30T08:44:28.457Z,2.80
2017-07-30T08:46:56.534Z,2.17
2017-07-30T08:49:24.594Z,2.20
2017-07-30T08:51:52.685Z,2.40
2017-07-30T08:54:20.747Z,2.50
2017-07-30T08:56:48.840Z,2.70
2017-07-30T08:59:16.915Z,2.30
2017-07-30T09:01:44.967Z,2.43
2017-07-30T09:04:13.035Z,2.20
2017-07-30T09:06:41.086Z,2.20
2017-07-30T09:09:09.172Z,2.30
2017-07-30T09:11:37.240Z,2.60
2017-07-30T09:14:05.296Z,2.20
2017-07-30T09:16:33.351Z,2.40
2017-07-30T09:19:02.204Z,2.77
2017-07-30T09:21:30.259Z,2.70
2017-07-30T09:23:58.346Z,2.67
2017-07-30T09:26:26.390Z,2.57
2017-07-30T09:28:54.463Z,2.60
2017-07-30T09:31:22.532Z,2.00
2017-07-30T09:33:50.603Z,2.17
2017-07-30T09:36:18.668Z,2.40
2017-07-30T09:38:46.721Z,2.20
2017-07-30T09:41:15.563Z,2.83
2017-07-30T09:43:43.632Z,2.17
2017-07-30T09:46:11.699Z,2.40
2017-07-30T09:48:39.774Z,2.50
2017-07-30T09:51:07.880Z,2.40
2017-07-30T09:53:35.937Z,2.60
2017-07-30T09:56:04.007Z,2.43
2017-07-30T09:58:32.052Z,2.30
2017-07-30T10:01:00.114Z,2.60
2017-07-30T10:03:28.935Z,1.97
2017-07-30T10:05:57.007Z,2.30
2017-07-30T10:08:25.092Z,3.27
2017-07-30T10:10:53.151Z,2.77
2017-07-30T10:13:21.238Z,2.53
2017-07-30T10:15:49.327Z,2.67
2017-07-30T10:18:17.434Z,2.70
2017-07-30T10:20:45.479Z,2.80
2017-07-30T10:23:13.559Z,2.33
2017-07-30T10:25:41.696Z,2.37
2017-07-30T10:28:09.848Z,2.30
2017-07-30T10:30:38.682Z,2.13
2017-07-30T10:33:06.751Z,2.20
2017-07-30T10:35:34.827Z,2.13
2017-07-30T10:38:02.887Z,2.40
2017-07-30T10:40:30.966Z,2.13
2017-07-30T10:42:59.023Z,2.47
2017-07-30T10:45:28.390Z,2.20
2017-07-30T10:47:57.207Z,2.47
2017-07-30T10:50:25.263Z,2.80
2017-07-30T10:52:53.339Z,3.00
2017-07-30T10:55:21.407Z,3.83
2017-07-30T10:57:49.499Z,3.20
2017-07-30T11:00:17.559Z,3.13
2017-07-30T11:02:45.647Z,2.90
2017-07-30T11:05:13.711Z,3.43
2017-07-30T11:07:41.765Z,3.00
2017-07-30T11:10:09.844Z,2.90
2017-07-30T11:12:37.940Z,3.93
2017-07-30T11:15:06.003Z,3.27
2017-07-30T11:17:34.065Z,3.37
2017-07-30T11:20:02.863Z,2.77
2017-07-30T11:22:30.929Z,2.70
2017-07-30T11:24:59.002Z,3.43
2017-07-30T11:27:27.067Z,3.37
2017-07-30T11:29:55.167Z,3.27
2017-07-30T11:32:23.997Z,3.13
2017-07-30T11:34:52.050Z,2.87
2017-07-30T11:37:20.151Z,3.40
2017-07-30T11:39:48.221Z,2.93
2017-07-30T11:42:16.313Z,3.10
2017-07-30T11:44:44.377Z,3.30
2017-07-30T11:47:12.455Z,3.20
2017-07-30T11:49:40.519Z,3.37
2017-07-30T11:52:08.596Z,2.80
2017-07-30T11:54:36.654Z,3.40
2017-07-30T11:57:04.722Z,3.10
2017-07-30T11:59:32.800Z,3.57
2017-07-30T12:02:00.897Z,3.53
2017-07-30T12:04:28.978Z,3.63
2017-07-30T12:06:57.806Z,3.23
2017-07-30T12:09:25.888Z,3.43
2017-07-30T12:11:53.951Z,3.47
2017-07-30T12:14:22.034Z,2.80
2017-07-30T12:16:50.092Z,3.30
2017-07-30T12:19:18.163Z,2.60
2017-07-30T12:21:46.264Z,2.83
2017-07-30T12:24:14.379Z,2.97
2017-07-30T12:26:43.211Z,2.93
2017-07-30T12:29:11.285Z,2.60
2017-07-30T12:31:39.343Z,2.77
2017-07-30T12:34:07.423Z,2.87
2017-07-30T12:36:35.472Z,2.30
2017-07-30T12:39:03.550Z,2.40
2017-07-30T12:41:31.619Z,2.63
2017-07-30T12:43:59.688Z,2.60
2017-07-30T12:46:27.786Z,2.97
2017-07-30T12:48:55.830Z,3.00
2017-07-30T12:51:23.897Z,2.87
2017-07-30T12:53:51.984Z,2.73
2017-07-30T12:56:20.039Z,2.60
2017-07-30T12:58:48.133Z,2.20
2017-07-30T13:01:16.187Z,2.33
2017-07-30T13:03:44.259Z,2.00
2017-07-30T13:06:12.326Z,1.70
2017-07-30T13:08:40.382Z,1.53
2017-07-30T13:11:08.459Z,1.90
2017-07-30T13:13:36.523Z,2.10
2017-07-30T13:16:04.619Z,1.80
2017-07-30T13:18:32.675Z,1.70
2017-07-30T13:21:00.737Z,1.90
2017-07-30T13:23:28.838Z,2.23
2017-07-30T13:25:56.890Z,1.80
2017-07-30T13:28:24.966Z,1.87
2017-07-30T13:30:53.070Z,2.03
2017-07-30T13:33:21.136Z,2.10
2017-07-30T13:35:49.201Z,1.63
2017-07-30T13:38:17.323Z,1.70
2017-07-30T13:40:46.123Z,1.90
2017-07-30T13:43:14.215Z,1.60
2017-07-30T13:45:42.291Z,2.20
2017-07-30T13:48:10.351Z,1.67
2017-07-30T13:50:38.419Z,1.90
2017-07-30T13:53:06.472Z,1.93
2017-07-30T13:55:34.571Z,1.57
2017-07-30T13:58:02.679Z,3.17
2017-07-30T14:00:31.512Z,2.30
2017-07-30T14:02:59.582Z,2.13
2017-07-30T14:05:27.656Z,1.97
2017-07-30T14:07:55.732Z,1.90
2017-07-30T14:10:23.796Z,2.33
2017-07-30T14:12:51.871Z,2.00
2017-07-30T14:15:19.939Z,1.80
2017-07-30T14:17:48.003Z,1.70
2017-07-30T14:20:16.118Z,2.17
2017-07-30T14:22:44.158Z,1.97
2017-07-30T14:25:12.233Z,1.87
2017-07-30T14:27:40.330Z,1.80
2017-07-30T14:30:08.388Z,2.10
2017-07-30T14:32:36.468Z,1.97
2017-07-30T14:35:04.588Z,2.10
2017-07-30T14:37:32.678Z,1.93
2017-07-30T14:40:00.758Z,2.47
2017-07-30T14:42:28.847Z,3.10
2017-07-30T14:44:56.890Z,4.10
2017-07-30T14:47:24.987Z,5.67
2017-07-30T14:49:53.039Z,7.60
2017-07-30T14:52:21.116Z,2.27
2017-07-30T14:54:49.206Z,2.40
2017-07-30T14:57:18.047Z,2.10
2017-07-30T14:59:46.127Z,1.87
2017-07-30T15:02:14.202Z,2.23
2017-07-30T15:04:42.282Z,2.10
2017-07-30T15:07:10.370Z,1.97
2017-07-30T15:09:38.435Z,2.00
2017-07-30T15:12:07.276Z,2.53
2017-07-30T15:14:35.336Z,2.40
2017-07-30T15:17:03.403Z,2.00
2017-07-30T15:19:31.479Z,2.47
2017-07-30T15:21:59.544Z,2.60
2017-07-30T15:24:28.447Z,2.60
2017-07-30T15:26:56.505Z,2.30
2017-07-30T15:29:24.591Z,2.57
2017-07-30T15:31:52.639Z,2.83
2017-07-30T15:34:20.708Z,1.83
2017-07-30T15:36:48.812Z,1.97
2017-07-30T15:39:16.874Z,2.33
2017-07-30T15:41:44.960Z,1.90
2017-07-30T15:44:13.029Z,2.10
2017-07-30T15:46:41.119Z,2.43
2017-07-30T15:49:09.196Z,2.73
2017-07-30T15:51:37.447Z,2.63
2017-07-30T15:54:05.608Z,2.20
2017-07-30T15:56:33.650Z,2.40
2017-07-30T15:59:01.730Z,2.47
2017-07-30T16:01:29.782Z,2.10
2017-07-30T16:03:57.871Z,2.10
2017-07-30T16:06:25.947Z,2.30
2017-07-30T16:08:54.023Z,2.30
2017-07-30T16:11:22.879Z,2.30
2017-07-30T16:13:50.927Z,1.97
2017-07-30T16:16:19.016Z,1.90
2017-07-30T16:18:47.071Z,2.37
2017-07-30T16:21:15.138Z,2.03
2017-07-30T16:23:43.246Z,2.40
2017-07-30T16:26:11.273Z,2.33
2017-07-30T16:28:39.351Z,2.37
2017-07-30T16:31:07.410Z,2.67
2017-07-30T16:33:35.472Z,2.60
2017-07-30T16:36:04.328Z,2.20
2017-07-30T16:38:32.384Z,1.90
2017-07-30T16:41:00.473Z,2.47
2017-07-30T16:43:28.548Z,2.83
2017-07-30T16:45:56.618Z,2.47
2017-07-30T16:48:24.682Z,2.40
2017-07-30T16:50:52.738Z,2.53
2017-07-30T16:53:20.814Z,2.70
2017-07-30T16:55:48.885Z,2.40
2017-07-30T16:58:16.948Z,1.67
2017-07-30T17:00:45.030Z,1.37
2017-07-30T17:03:13.098Z,1.83
2017-07-30T17:05:41.141Z,1.37
2017-07-30T17:08:09.216Z,1.30
2017-07-30T17:10:37.267Z,1.20
2017-07-30T17:13:05.343Z,1.67
2017-07-30T17:15:33.410Z,1.60
2017-07-30T17:18:01.520Z,1.63
2017-07-30T17:20:29.570Z,1.43
2017-07-30T17:22:57.632Z,1.53
2017-07-30T17:25:25.691Z,1.50
2017-07-30T17:27:53.743Z,1.00
2017-07-30T17:30:21.824Z,1.10
2017-07-30T17:32:49.892Z,1.30
2017-07-30T17:35:17.979Z,1.17
2017-07-30T17:37:47.235Z,1.37
2017-07-30T17:40:15.260Z,1.50
2017-07-30T17:42:43.355Z,1.40
2017-07-30T17:45:11.429Z,1.50
2017-07-30T17:47:39.494Z,1.37
2017-07-30T17:50:07.543Z,1.40
2017-07-30T17:52:35.648Z,1.60
2017-07-30T17:55:03.711Z,1.17
2017-07-30T17:57:32.579Z,1.50
2017-07-30T18:00:00.662Z,1.50
2017-07-30T18:02:31.314Z,1.30
2017-07-30T18:05:00.390Z,1.10
2017-07-30T18:07:28.467Z,1.40
2017-07-30T18:09:56.522Z,1.10
2017-07-30T18:12:24.595Z,1.27
2017-07-30T18:14:52.674Z,1.40
2017-07-30T18:17:20.740Z,1.50
2017-07-30T18:19:48.845Z,1.50
2017-07-30T18:22:19.307Z,1.30
2017-07-30T18:24:47.633Z,1.60
2017-07-30T18:27:16.088Z,1.70
2017-07-30T18:29:45.571Z,1.23
2017-07-30T18:32:13.618Z,1.27
2017-07-30T18:34:42.480Z,1.40
2017-07-30T18:37:10.546Z,1.60
2017-07-30T18:39:38.642Z,1.27
2017-07-30T18:42:07.463Z,1.10
2017-07-30T18:44:35.548Z,1.47
2017-07-30T18:47:03.614Z,1.20
2017-07-30T18:49:31.674Z,1.30
2017-07-30T18:51:59.743Z,1.60
2017-07-30T18:54:27.799Z,1.90
2017-07-30T18:56:56.735Z,1.90
2017-07-30T18:59:24.805Z,1.60
2017-07-30T19:01:52.878Z,1.70
2017-07-30T19:04:20.943Z,1.73
2017-07-30T19:06:49.015Z,1.83
2017-07-30T19:09:17.853Z,1.60
2017-07-30T19:11:45.923Z,1.73
2017-07-30T19:14:13.984Z,1.17
2017-07-30T19:16:42.066Z,1.33
2017-07-30T19:19:10.113Z,2.07
2017-07-30T19:21:39.924Z,1.87
2017-07-30T19:24:07.985Z,1.90
2017-07-30T19:26:36.059Z,1.60
2017-07-30T19:29:10.909Z,1.80
2017-07-30T19:31:39.003Z,1.70
2017-07-30T19:34:07.078Z,1.80
2017-07-30T19:36:35.142Z,1.93
2017-07-30T19:39:03.220Z,2.47
2017-07-30T19:41:31.291Z,2.50
2017-07-30T19:43:59.399Z,2.10
2017-07-30T19:46:28.272Z,2.40
2017-07-30T19:48:57.116Z,2.00
2017-07-30T19:51:25.175Z,2.20
2017-07-30T19:53:53.239Z,2.03
2017-07-30T19:56:21.299Z,1.60
2017-07-30T19:58:49.372Z,1.90
2017-07-30T20:01:17.463Z,1.70
2017-07-30T20:03:47.394Z,1.40
2017-07-30T20:06:15.470Z,1.40
2017-07-30T20:08:43.507Z,2.10
2017-07-30T20:11:11.577Z,1.70
2017-07-30T20:13:39.656Z,2.07
2017-07-30T20:16:07.758Z,1.93
2017-07-30T20:18:35.819Z,1.90
2017-07-30T20:21:03.907Z,1.80
2017-07-30T20:23:32.746Z,1.93
2017-07-30T20:26:00.826Z,1.70
2017-07-30T20:28:28.912Z,2.07
2017-07-30T20:30:56.966Z,2.10
2017-07-30T20:33:25.055Z,1.70
2017-07-30T20:35:53.118Z,2.00
2017-07-30T20:38:21.200Z,1.70
2017-07-30T20:40:49.246Z,2.00
2017-07-30T20:43:17.321Z,1.40
2017-07-30T20:45:45.408Z,1.50
2017-07-30T20:48:13.461Z,1.93
2017-07-30T20:50:41.530Z,2.47
2017-07-30T20:53:09.620Z,2.10
2017-07-30T20:55:37.691Z,2.40
2017-07-30T20:58:05.777Z,2.13
2017-07-30T21:00:33.843Z,2.23
2017-07-30T21:03:01.923Z,2.47
2017-07-30T21:05:30.014Z,2.33
2017-07-30T21:07:58.064Z,2.47
2017-07-30T21:10:26.129Z,2.50
2017-07-30T21:12:54.202Z,2.07
2017-07-30T21:15:22.439Z,2.20
2017-07-30T21:17:50.503Z,2.20
2017-07-30T21:20:18.591Z,2.37
2017-07-30T21:22:46.655Z,2.20
2017-07-30T21:25:14.727Z,2.90
2017-07-30T21:27:42.803Z,2.30
2017-07-30T21:30:11.815Z,2.37
2017-07-30T21:32:39.978Z,2.27
2017-07-30T21:35:08.030Z,2.30
2017-07-30T21:37:36.103Z,2.37
2017-07-30T21:40:04.172Z,2.60
2017-07-30T21:42:32.261Z,2.60
2017-07-30T21:45:00.330Z,2.57
2017-07-30T21:47:28.404Z,2.70
2017-07-30T21:49:56.460Z,2.60
2017-07-30T21:52:24.559Z,2.93
2017-07-30T21:54:52.620Z,2.60
2017-07-30T21:57:20.705Z,2.90
2017-07-30T21:59:48.779Z,2.90
2017-07-30T22:02:16.822Z,2.10
2017-07-30T22:04:44.892Z,2.60
2017-07-30T22:07:12.943Z,2.83
2017-07-30T22:09:41.777Z,2.73
2017-07-30T22:12:09.857Z,2.23
2017-07-30T22:14:37.907Z,2.63
2017-07-30T22:17:05.964Z,2.90
2017-07-30T22:19:34.010Z,3.00
2017-07-30T22:22:02.846Z,2.97
2017-07-30T22:24:30.920Z,3.53
2017-07-30T22:26:58.965Z,3.10
2017-07-30T22:29:27.032Z,3.20
2017-07-30T22:31:55.105Z,3.47
2017-07-30T22:34:23.150Z,3.10
2017-07-30T22:36:51.990Z,2.73
2017-07-30T22:39:20.058Z,3.13
2017-07-30T22:41:48.121Z,3.20
2017-07-30T22:44:16.179Z,3.90
2017-07-30T22:46:44.228Z,3.00
2017-07-30T22:49:13.066Z,3.07
2017-07-30T22:51:41.146Z,2.70
2017-07-30T22:54:09.204Z,2.40
2017-07-30T22:56:37.270Z,3.00
2017-07-30T22:59:05.339Z,2.37
2017-07-30T23:01:33.416Z,2.23
2017-07-30T23:04:01.503Z,2.67
2017-07-30T23:06:29.562Z,2.97
2017-07-30T23:08:57.642Z,3.30
2017-07-30T23:11:25.741Z,3.80
2017-07-30T23:13:53.798Z,3.30
2017-07-30T23:16:21.868Z,3.67
2017-07-30T23:18:49.944Z,3.37
2017-07-30T23:21:18.031Z,3.43
2017-07-30T23:23:46.108Z,3.07
2017-07-30T23:26:14.142Z,3.20
2017-07-30T23:28:42.216Z,3.13
2017-07-30T23:31:10.286Z,3.80
2017-07-30T23:33:38.359Z,2.93
2017-07-30T23:36:06.438Z,3.67
2017-07-30T23:38:34.503Z,3.20
2017-07-30T23:41:02.563Z,3.07
2017-07-30T23:43:30.625Z,3.63
2017-07-30T23:45:58.686Z,6.10
2017-07-30T23:48:26.758Z,5.00
2017-07-30T23:50:55.006Z,4.60
2017-07-30T23:53:23.868Z,3.80
2017-07-30T23:55:51.918Z,3.87
2017-07-30T23:58:19.986Z,4.37
